Terminal Aerodrome Forecast
Issued by NWS Sterling, VA

Home | Current Version | Previous Version | Text Only | Print | Product List | Glossary On
Versions: 1 2 3 4 5 6 7 8 9 10 11 12 13 14 15 16
000
FTUS41 KLWX 171728
TAFMRB
TAF
KMRB 171728Z 1718/1818 31006KT P6SM FEW150 FEW250
     FM172100 24004KT P6SM FEW150 FEW250
     FM180000 17004KT P6SM FEW150 SCT250
     FM180900 17005KT P6SM SCT150 BKN250 WS020/21035KT
     FM181300 18008KT P6SM SCT110 OVC150
     FM181500 17009KT 6SM -SHRA SCT035 OVC070=

USA.gov is the U.S. government's official web portal to all federal, state and local government web resources and services.